sensor_id;sensor_type;location;lat;lon;timestamp;P1;durP1;ratioP1;P2;durP2;ratioP2
65533;SDS011;53640;55.838;37.184;2024-02-21T00:00:28;8.75;;;6.53;;
65533;SDS011;53640;55.838;37.184;2024-02-21T00:02:54;9.93;;;6.20;;
65533;SDS011;53640;55.838;37.184;2024-02-21T00:05:21;9.43;;;6.13;;
65533;SDS011;53640;55.838;37.184;2024-02-21T00:07:47;8.43;;;5.72;;
65533;SDS011;53640;55.838;37.184;2024-02-21T00:10:14;7.72;;;5.38;;
65533;SDS011;53640;55.838;37.184;2024-02-21T00:12:40;8.45;;;6.05;;
65533;SDS011;53640;55.838;37.184;2024-02-21T00:15:08;8.73;;;6.07;;
65533;SDS011;53640;55.838;37.184;2024-02-21T00:17:34;8.95;;;6.05;;
65533;SDS011;53640;55.838;37.184;2024-02-21T00:20:01;10.70;;;6.72;;
65533;SDS011;53640;55.838;37.184;2024-02-21T00:22:27;10.50;;;6.68;;
65533;SDS011;53640;55.838;37.184;2024-02-21T00:24:57;12.00;;;6.43;;
65533;SDS011;53640;55.838;37.184;2024-02-21T00:27:24;9.75;;;6.15;;
65533;SDS011;53640;55.838;37.184;2024-02-21T00:29:50;7.13;;;5.47;;
65533;SDS011;53640;55.838;37.184;2024-02-21T00:32:16;9.95;;;6.93;;
65533;SDS011;53640;55.838;37.184;2024-02-21T00:34:43;9.60;;;6.05;;
65533;SDS011;53640;55.838;37.184;2024-02-21T00:37:09;7.95;;;5.78;;
65533;SDS011;53640;55.838;37.184;2024-02-21T00:39:36;10.48;;;5.95;;
65533;SDS011;53640;55.838;37.184;2024-02-21T00:42:03;7.93;;;5.90;;
65533;SDS011;53640;55.838;37.184;2024-02-21T00:44:29;9.10;;;5.82;;
65533;SDS011;53640;55.838;37.184;2024-02-21T00:46:56;9.95;;;6.00;;
65533;SDS011;53640;55.838;37.184;2024-02-21T00:49:22;10.40;;;5.88;;
65533;SDS011;53640;55.838;37.184;2024-02-21T00:51:48;12.25;;;7.22;;
65533;SDS011;53640;55.838;37.184;2024-02-21T00:54:15;12.30;;;6.47;;
65533;SDS011;53640;55.838;37.184;2024-02-21T00:56:42;10.15;;;6.38;;
65533;SDS011;53640;55.838;37.184;2024-02-21T00:59:09;9.07;;;6.22;;
65533;SDS011;53640;55.838;37.184;2024-02-21T01:01:35;11.75;;;6.40;;
65533;SDS011;53640;55.838;37.184;2024-02-21T01:04:01;8.95;;;6.15;;
65533;SDS011;53640;55.838;37.184;2024-02-21T01:06:27;9.35;;;6.05;;
65533;SDS011;53640;55.838;37.184;2024-02-21T01:08:54;10.07;;;6.38;;
65533;SDS011;53640;55.838;37.184;2024-02-21T01:11:20;8.68;;;6.20;;
65533;SDS011;53640;55.838;37.184;2024-02-21T01:13:47;11.10;;;7.03;;
65533;SDS011;53640;55.838;37.184;2024-02-21T01:16:15;10.52;;;6.40;;
65533;SDS011;53640;55.838;37.184;2024-02-21T01:18:41;10.40;;;6.93;;
65533;SDS011;53640;55.838;37.184;2024-02-21T01:21:08;12.35;;;7.07;;
65533;SDS011;53640;55.838;37.184;2024-02-21T01:23:37;9.13;;;6.22;;
65533;SDS011;53640;55.838;37.184;2024-02-21T01:26:03;8.30;;;6.03;;
65533;SDS011;53640;55.838;37.184;2024-02-21T01:28:31;10.38;;;6.60;;
65533;SDS011;53640;55.838;37.184;2024-02-21T01:30:59;9.30;;;6.20;;
65533;SDS011;53640;55.838;37.184;2024-02-21T01:33:25;11.95;;;7.20;;
65533;SDS011;53640;55.838;37.184;2024-02-21T01:35:52;9.30;;;6.32;;
65533;SDS011;53640;55.838;37.184;2024-02-21T01:38:18;12.13;;;6.40;;
65533;SDS011;53640;55.838;37.184;2024-02-21T01:40:45;9.48;;;6.10;;
65533;SDS011;53640;55.838;37.184;2024-02-21T01:43:16;7.80;;;5.70;;
65533;SDS011;53640;55.838;37.184;2024-02-21T01:45:52;10.70;;;7.30;;
65533;SDS011;53640;55.838;37.184;2024-02-21T01:48:21;8.82;;;6.65;;
65533;SDS011;53640;55.838;37.184;2024-02-21T01:50:49;8.02;;;5.70;;
65533;SDS011;53640;55.838;37.184;2024-02-21T01:53:17;11.60;;;6.25;;
65533;SDS011;53640;55.838;37.184;2024-02-21T01:55:47;9.88;;;5.47;;
65533;SDS011;53640;55.838;37.184;2024-02-21T01:58:14;10.50;;;6.60;;
65533;SDS011;53640;55.838;37.184;2024-02-21T02:00:43;12.15;;;6.75;;
65533;SDS011;53640;55.838;37.184;2024-02-21T02:03:11;13.77;;;7.55;;
65533;SDS011;53640;55.838;37.184;2024-02-21T02:05:48;12.10;;;6.63;;
65533;SDS011;53640;55.838;37.184;2024-02-21T02:08:17;11.93;;;6.68;;
65533;SDS011;53640;55.838;37.184;2024-02-21T02:10:48;9.18;;;6.40;;
65533;SDS011;53640;55.838;37.184;2024-02-21T02:13:15;12.45;;;6.63;;
65533;SDS011;53640;55.838;37.184;2024-02-21T02:15:44;16.60;;;7.50;;
65533;SDS011;53640;55.838;37.184;2024-02-21T02:18:12;12.50;;;6.80;;
65533;SDS011;53640;55.838;37.184;2024-02-21T02:20:40;10.55;;;7.45;;
65533;SDS011;53640;55.838;37.184;2024-02-21T02:26:00;10.20;;;6.10;;
65533;SDS011;53640;55.838;37.184;2024-02-21T02:28:37;12.20;;;6.97;;
65533;SDS011;53640;55.838;37.184;2024-02-21T02:31:04;13.80;;;7.15;;
65533;SDS011;53640;55.838;37.184;2024-02-21T02:33:31;10.05;;;6.97;;
65533;SDS011;53640;55.838;37.184;2024-02-21T02:35:59;9.77;;;7.10;;
65533;SDS011;53640;55.838;37.184;2024-02-21T02:38:26;11.30;;;7.25;;
65533;SDS011;53640;55.838;37.184;2024-02-21T02:40:54;9.57;;;6.50;;
65533;SDS011;53640;55.838;37.184;2024-02-21T02:43:32;10.23;;;6.72;;
65533;SDS011;53640;55.838;37.184;2024-02-21T02:45:59;15.35;;;7.43;;
65533;SDS011;53640;55.838;37.184;2024-02-21T02:48:27;10.30;;;7.20;;
65533;SDS011;53640;55.838;37.184;2024-02-21T02:50:53;12.32;;;7.20;;
65533;SDS011;53640;55.838;37.184;2024-02-21T02:53:21;12.85;;;7.22;;
65533;SDS011;53640;55.838;37.184;2024-02-21T02:55:48;10.60;;;6.22;;
65533;SDS011;53640;55.838;37.184;2024-02-21T02:58:14;12.05;;;7.38;;
65533;SDS011;53640;55.838;37.184;2024-02-21T03:00:42;13.63;;;8.18;;
65533;SDS011;53640;55.838;37.184;2024-02-21T03:03:09;11.10;;;7.20;;
65533;SDS011;53640;55.838;37.184;2024-02-21T03:05:35;11.50;;;7.57;;
65533;SDS011;53640;55.838;37.184;2024-02-21T03:08:02;11.30;;;7.22;;
65533;SDS011;53640;55.838;37.184;2024-02-21T03:10:33;11.23;;;6.78;;
65533;SDS011;53640;55.838;37.184;2024-02-21T03:12:59;13.32;;;7.53;;
65533;SDS011;53640;55.838;37.184;2024-02-21T03:15:26;12.43;;;7.63;;
65533;SDS011;53640;55.838;37.184;2024-02-21T03:17:52;12.15;;;6.88;;
65533;SDS011;53640;55.838;37.184;2024-02-21T03:20:19;10.23;;;6.88;;
65533;SDS011;53640;55.838;37.184;2024-02-21T03:22:45;17.25;;;7.78;;
65533;SDS011;53640;55.838;37.184;2024-02-21T03:25:12;12.30;;;7.38;;
65533;SDS011;53640;55.838;37.184;2024-02-21T03:27:40;11.07;;;7.30;;
65533;SDS011;53640;55.838;37.184;2024-02-21T03:30:07;12.27;;;7.28;;
65533;SDS011;53640;55.838;37.184;2024-02-21T03:32:34;12.80;;;7.32;;
65533;SDS011;53640;55.838;37.184;2024-02-21T03:35:01;13.88;;;8.10;;
65533;SDS011;53640;55.838;37.184;2024-02-21T03:37:31;9.98;;;7.00;;
65533;SDS011;53640;55.838;37.184;2024-02-21T03:39:58;11.10;;;6.95;;
65533;SDS011;53640;55.838;37.184;2024-02-21T03:42:24;11.27;;;7.10;;
65533;SDS011;53640;55.838;37.184;2024-02-21T03:44:51;13.38;;;7.70;;
65533;SDS011;53640;55.838;37.184;2024-02-21T03:47:18;11.75;;;7.50;;
65533;SDS011;53640;55.838;37.184;2024-02-21T03:49:44;10.50;;;6.68;;
65533;SDS011;53640;55.838;37.184;2024-02-21T03:52:11;9.25;;;6.40;;
65533;SDS011;53640;55.838;37.184;2024-02-21T03:54:41;12.65;;;7.47;;
65533;SDS011;53640;55.838;37.184;2024-02-21T03:57:07;11.93;;;7.57;;
65533;SDS011;53640;55.838;37.184;2024-02-21T03:59:34;11.25;;;7.68;;
65533;SDS011;53640;55.838;37.184;2024-02-21T04:02:00;14.13;;;8.45;;
65533;SDS011;53640;55.838;37.184;2024-02-21T04:04:26;11.57;;;7.43;;
65533;SDS011;53640;55.838;37.184;2024-02-21T04:06:54;15.15;;;7.95;;
65533;SDS011;53640;55.838;37.184;2024-02-21T04:09:21;13.35;;;7.65;;
65533;SDS011;53640;55.838;37.184;2024-02-21T04:11:51;10.07;;;7.50;;
65533;SDS011;53640;55.838;37.184;2024-02-21T04:14:17;13.15;;;8.02;;
65533;SDS011;53640;55.838;37.184;2024-02-21T04:16:44;11.93;;;8.05;;
65533;SDS011;53640;55.838;37.184;2024-02-21T04:19:10;16.75;;;8.63;;
65533;SDS011;53640;55.838;37.184;2024-02-21T04:21:38;12.30;;;7.57;;
65533;SDS011;53640;55.838;37.184;2024-02-21T04:24:05;10.18;;;7.13;;
65533;SDS011;53640;55.838;37.184;2024-02-21T04:26:32;12.80;;;7.60;;
65533;SDS011;53640;55.838;37.184;2024-02-21T04:29:00;13.50;;;8.23;;
65533;SDS011;53640;55.838;37.184;2024-02-21T04:31:28;13.05;;;7.65;;
65533;SDS011;53640;55.838;37.184;2024-02-21T04:33:55;11.80;;;7.78;;
65533;SDS011;53640;55.838;37.184;2024-02-21T04:36:21;13.00;;;7.63;;
65533;SDS011;53640;55.838;37.184;2024-02-21T04:38:48;13.93;;;8.20;;
65533;SDS011;53640;55.838;37.184;2024-02-21T04:41:16;12.82;;;8.52;;
65533;SDS011;53640;55.838;37.184;2024-02-21T04:43:42;13.40;;;8.45;;
65533;SDS011;53640;55.838;37.184;2024-02-21T04:46:08;14.50;;;7.90;;
65533;SDS011;53640;55.838;37.184;2024-02-21T04:48:35;13.23;;;7.75;;
65533;SDS011;53640;55.838;37.184;2024-02-21T04:51:02;12.77;;;7.93;;
65533;SDS011;53640;55.838;37.184;2024-02-21T04:53:31;13.23;;;8.35;;
65533;SDS011;53640;55.838;37.184;2024-02-21T04:55:58;13.68;;;8.90;;
65533;SDS011;53640;55.838;37.184;2024-02-21T04:58:25;13.90;;;9.30;;
65533;SDS011;53640;55.838;37.184;2024-02-21T05:00:51;15.35;;;8.98;;
65533;SDS011;53640;55.838;37.184;2024-02-21T05:03:19;11.50;;;8.50;;
65533;SDS011;53640;55.838;37.184;2024-02-21T05:05:45;12.40;;;8.25;;
65533;SDS011;53640;55.838;37.184;2024-02-21T05:08:12;14.02;;;8.98;;
65533;SDS011;53640;55.838;37.184;2024-02-21T05:10:38;15.25;;;8.98;;
65533;SDS011;53640;55.838;37.184;2024-02-21T05:13:05;14.25;;;8.00;;
65533;SDS011;53640;55.838;37.184;2024-02-21T05:15:31;16.23;;;9.40;;
65533;SDS011;53640;55.838;37.184;2024-02-21T05:17:59;11.57;;;7.95;;
65533;SDS011;53640;55.838;37.184;2024-02-21T05:20:25;16.20;;;7.53;;
65533;SDS011;53640;55.838;37.184;2024-02-21T05:22:51;16.63;;;9.07;;
65533;SDS011;53640;55.838;37.184;2024-02-21T05:25:18;16.95;;;9.48;;
65533;SDS011;53640;55.838;37.184;2024-02-21T05:27:45;14.65;;;9.43;;
65533;SDS011;53640;55.838;37.184;2024-02-21T05:30:12;14.50;;;8.68;;
65533;SDS011;53640;55.838;37.184;2024-02-21T05:32:39;12.30;;;8.30;;
65533;SDS011;53640;55.838;37.184;2024-02-21T05:35:07;16.67;;;8.82;;
65533;SDS011;53640;55.838;37.184;2024-02-21T05:37:34;14.30;;;9.05;;
65533;SDS011;53640;55.838;37.184;2024-02-21T05:40:00;12.48;;;8.00;;
65533;SDS011;53640;55.838;37.184;2024-02-21T05:42:27;14.38;;;8.38;;
65533;SDS011;53640;55.838;37.184;2024-02-21T05:44:53;15.20;;;8.57;;
65533;SDS011;53640;55.838;37.184;2024-02-21T05:47:20;12.85;;;8.90;;
65533;SDS011;53640;55.838;37.184;2024-02-21T05:49:46;13.48;;;8.57;;
65533;SDS011;53640;55.838;37.184;2024-02-21T05:52:14;12.95;;;8.38;;
65533;SDS011;53640;55.838;37.184;2024-02-21T05:54:41;19.98;;;10.02;;
65533;SDS011;53640;55.838;37.184;2024-02-21T05:57:07;16.27;;;9.13;;
65533;SDS011;53640;55.838;37.184;2024-02-21T05:59:39;15.13;;;8.82;;
65533;SDS011;53640;55.838;37.184;2024-02-21T06:02:07;17.50;;;9.55;;
65533;SDS011;53640;55.838;37.184;2024-02-21T06:04:34;13.50;;;8.55;;
65533;SDS011;53640;55.838;37.184;2024-02-21T06:07:00;13.45;;;8.52;;
65533;SDS011;53640;55.838;37.184;2024-02-21T06:09:27;16.70;;;9.25;;
65533;SDS011;53640;55.838;37.184;2024-02-21T06:11:54;14.90;;;9.25;;
65533;SDS011;53640;55.838;37.184;2024-02-21T06:14:20;17.48;;;9.70;;
65533;SDS011;53640;55.838;37.184;2024-02-21T06:16:47;20.48;;;10.85;;
65533;SDS011;53640;55.838;37.184;2024-02-21T06:19:13;16.17;;;9.70;;
65533;SDS011;53640;55.838;37.184;2024-02-21T06:21:41;16.00;;;10.07;;
65533;SDS011;53640;55.838;37.184;2024-02-21T06:24:07;16.90;;;9.30;;
65533;SDS011;53640;55.838;37.184;2024-02-21T06:26:34;16.17;;;9.93;;
65533;SDS011;53640;55.838;37.184;2024-02-21T06:29:02;16.33;;;9.27;;
65533;SDS011;53640;55.838;37.184;2024-02-21T06:31:32;17.15;;;8.73;;
65533;SDS011;53640;55.838;37.184;2024-02-21T06:33:59;15.38;;;9.65;;
65533;SDS011;53640;55.838;37.184;2024-02-21T06:36:25;13.80;;;8.73;;
65533;SDS011;53640;55.838;37.184;2024-02-21T06:38:52;14.88;;;9.45;;
65533;SDS011;53640;55.838;37.184;2024-02-21T06:41:19;15.68;;;8.57;;
65533;SDS011;53640;55.838;37.184;2024-02-21T06:43:46;14.57;;;9.00;;
65533;SDS011;53640;55.838;37.184;2024-02-21T06:46:28;15.10;;;9.20;;
65533;SDS011;53640;55.838;37.184;2024-02-21T06:48:55;13.95;;;9.07;;
65533;SDS011;53640;55.838;37.184;2024-02-21T06:55:04;20.13;;;9.48;;
65533;SDS011;53640;55.838;37.184;2024-02-21T06:57:54;13.93;;;8.18;;
65533;SDS011;53640;55.838;37.184;2024-02-21T07:00:53;15.68;;;9.20;;
65533;SDS011;53640;55.838;37.184;2024-02-21T07:03:20;16.10;;;10.38;;
65533;SDS011;53640;55.838;37.184;2024-02-21T07:05:48;17.00;;;8.95;;
65533;SDS011;53640;55.838;37.184;2024-02-21T07:08:15;15.60;;;8.98;;
65533;SDS011;53640;55.838;37.184;2024-02-21T07:10:44;14.77;;;8.98;;
65533;SDS011;53640;55.838;37.184;2024-02-21T07:13:12;15.00;;;9.07;;
65533;SDS011;53640;55.838;37.184;2024-02-21T07:15:39;16.27;;;9.50;;
65533;SDS011;53640;55.838;37.184;2024-02-21T07:18:06;18.17;;;9.88;;
65533;SDS011;53640;55.838;37.184;2024-02-21T07:20:33;14.75;;;8.45;;
65533;SDS011;53640;55.838;37.184;2024-02-21T07:23:03;15.15;;;9.18;;
65533;SDS011;53640;55.838;37.184;2024-02-21T07:25:31;15.35;;;10.18;;
65533;SDS011;53640;55.838;37.184;2024-02-21T07:27:59;14.45;;;9.55;;
65533;SDS011;53640;55.838;37.184;2024-02-21T07:30:25;15.00;;;9.38;;
65533;SDS011;53640;55.838;37.184;2024-02-21T07:39:31;20.02;;;10.23;;
65533;SDS011;53640;55.838;37.184;2024-02-21T07:42:11;15.95;;;9.20;;
65533;SDS011;53640;55.838;37.184;2024-02-21T07:45:24;15.40;;;8.88;;
65533;SDS011;53640;55.838;37.184;2024-02-21T07:48:19;16.98;;;9.70;;
65533;SDS011;53640;55.838;37.184;2024-02-21T07:51:50;16.55;;;8.85;;
65533;SDS011;53640;55.838;37.184;2024-02-21T07:54:38;16.63;;;9.70;;
65533;SDS011;53640;55.838;37.184;2024-02-21T07:57:10;15.95;;;9.48;;
65533;SDS011;53640;55.838;37.184;2024-02-21T08:00:08;12.55;;;8.45;;
65533;SDS011;53640;55.838;37.184;2024-02-21T08:06:50;13.43;;;8.63;;
65533;SDS011;53640;55.838;37.184;2024-02-21T08:09:20;12.65;;;8.35;;
65533;SDS011;53640;55.838;37.184;2024-02-21T08:11:47;15.05;;;8.30;;
65533;SDS011;53640;55.838;37.184;2024-02-21T08:14:15;11.93;;;7.90;;
65533;SDS011;53640;55.838;37.184;2024-02-21T08:16:42;14.13;;;8.95;;
65533;SDS011;53640;55.838;37.184;2024-02-21T08:19:09;14.63;;;8.85;;
65533;SDS011;53640;55.838;37.184;2024-02-21T08:21:43;12.45;;;8.07;;
65533;SDS011;53640;55.838;37.184;2024-02-21T08:24:13;12.85;;;8.48;;
65533;SDS011;53640;55.838;37.184;2024-02-21T08:26:44;13.82;;;8.00;;
65533;SDS011;53640;55.838;37.184;2024-02-21T08:29:11;14.35;;;7.93;;
65533;SDS011;53640;55.838;37.184;2024-02-21T08:31:39;11.50;;;8.00;;
65533;SDS011;53640;55.838;37.184;2024-02-21T08:34:06;11.25;;;7.95;;
65533;SDS011;53640;55.838;37.184;2024-02-21T08:36:32;11.90;;;7.65;;
65533;SDS011;53640;55.838;37.184;2024-02-21T08:39:01;15.70;;;9.05;;
65533;SDS011;53640;55.838;37.184;2024-02-21T08:41:31;17.85;;;9.80;;
65533;SDS011;53640;55.838;37.184;2024-02-21T08:44:00;13.13;;;8.00;;
65533;SDS011;53640;55.838;37.184;2024-02-21T08:46:30;12.40;;;8.50;;
65533;SDS011;53640;55.838;37.184;2024-02-21T08:48:56;18.17;;;9.32;;
65533;SDS011;53640;55.838;37.184;2024-02-21T08:51:55;12.13;;;8.55;;
65533;SDS011;53640;55.838;37.184;2024-02-21T08:54:21;15.07;;;8.40;;
65533;SDS011;53640;55.838;37.184;2024-02-21T08:56:48;14.48;;;8.77;;
65533;SDS011;53640;55.838;37.184;2024-02-21T08:59:14;14.73;;;8.85;;
65533;SDS011;53640;55.838;37.184;2024-02-21T09:01:44;12.85;;;8.82;;
65533;SDS011;53640;55.838;37.184;2024-02-21T09:04:11;11.93;;;7.97;;
65533;SDS011;53640;55.838;37.184;2024-02-21T09:06:38;14.68;;;9.38;;
65533;SDS011;53640;55.838;37.184;2024-02-21T09:09:13;13.70;;;9.10;;
65533;SDS011;53640;55.838;37.184;2024-02-21T09:11:40;13.55;;;8.82;;
65533;SDS011;53640;55.838;37.184;2024-02-21T09:14:08;12.15;;;8.65;;
65533;SDS011;53640;55.838;37.184;2024-02-21T09:16:34;18.13;;;9.68;;
65533;SDS011;53640;55.838;37.184;2024-02-21T09:19:06;15.40;;;8.48;;
65533;SDS011;53640;55.838;37.184;2024-02-21T09:21:33;15.63;;;9.55;;
65533;SDS011;53640;55.838;37.184;2024-02-21T09:24:00;15.43;;;9.20;;
65533;SDS011;53640;55.838;37.184;2024-02-21T09:26:27;16.92;;;8.93;;
65533;SDS011;53640;55.838;37.184;2024-02-21T09:29:01;13.00;;;8.88;;
65533;SDS011;53640;55.838;37.184;2024-02-21T09:31:30;12.25;;;8.05;;
65533;SDS011;53640;55.838;37.184;2024-02-21T09:33:58;15.48;;;8.63;;
65533;SDS011;53640;55.838;37.184;2024-02-21T09:36:25;21.20;;;9.57;;
65533;SDS011;53640;55.838;37.184;2024-02-21T09:38:54;14.25;;;8.98;;
65533;SDS011;53640;55.838;37.184;2024-02-21T09:41:27;13.88;;;9.30;;
65533;SDS011;53640;55.838;37.184;2024-02-21T09:43:55;12.88;;;9.00;;
65533;SDS011;53640;55.838;37.184;2024-02-21T09:51:43;16.67;;;10.20;;
65533;SDS011;53640;55.838;37.184;2024-02-21T09:54:13;13.32;;;9.60;;
65533;SDS011;53640;55.838;37.184;2024-02-21T09:56:45;17.05;;;10.85;;
65533;SDS011;53640;55.838;37.184;2024-02-21T10:01:52;17.35;;;10.05;;
65533;SDS011;53640;55.838;37.184;2024-02-21T10:04:21;14.57;;;9.40;;
65533;SDS011;53640;55.838;37.184;2024-02-21T10:06:50;19.98;;;10.57;;
65533;SDS011;53640;55.838;37.184;2024-02-21T10:09:23;14.40;;;10.00;;
65533;SDS011;53640;55.838;37.184;2024-02-21T10:17:39;14.68;;;8.80;;
65533;SDS011;53640;55.838;37.184;2024-02-21T10:20:09;16.00;;;10.15;;
65533;SDS011;53640;55.838;37.184;2024-02-21T10:22:38;17.88;;;9.25;;
65533;SDS011;53640;55.838;37.184;2024-02-21T10:25:09;20.15;;;10.77;;
65533;SDS011;53640;55.838;37.184;2024-02-21T10:27:41;17.67;;;10.70;;
65533;SDS011;53640;55.838;37.184;2024-02-21T10:30:13;18.55;;;10.15;;
65533;SDS011;53640;55.838;37.184;2024-02-21T10:32:52;17.08;;;9.48;;
65533;SDS011;53640;55.838;37.184;2024-02-21T10:35:29;15.52;;;9.90;;
65533;SDS011;53640;55.838;37.184;2024-02-21T10:38:01;17.52;;;9.98;;
65533;SDS011;53640;55.838;37.184;2024-02-21T10:40:30;15.00;;;9.25;;
65533;SDS011;53640;55.838;37.184;2024-02-21T10:43:03;16.65;;;9.60;;
65533;SDS011;53640;55.838;37.184;2024-02-21T10:45:36;19.42;;;9.80;;
65533;SDS011;53640;55.838;37.184;2024-02-21T10:48:12;17.92;;;9.05;;
65533;SDS011;53640;55.838;37.184;2024-02-21T10:53:20;14.50;;;8.80;;
65533;SDS011;53640;55.838;37.184;2024-02-21T10:56:58;17.33;;;10.00;;
65533;SDS011;53640;55.838;37.184;2024-02-21T10:59:00;15.13;;;8.70;;
65533;SDS011;53640;55.838;37.184;2024-02-21T11:01:29;15.77;;;9.70;;
65533;SDS011;53640;55.838;37.184;2024-02-21T11:04:07;15.70;;;9.98;;
65533;SDS011;53640;55.838;37.184;2024-02-21T11:06:38;16.05;;;9.20;;
65533;SDS011;53640;55.838;37.184;2024-02-21T11:09:07;18.88;;;10.05;;
65533;SDS011;53640;55.838;37.184;2024-02-21T11:11:43;14.38;;;9.63;;
65533;SDS011;53640;55.838;37.184;2024-02-21T11:14:20;15.70;;;9.27;;
65533;SDS011;53640;55.838;37.184;2024-02-21T11:16:51;15.23;;;9.68;;
65533;SDS011;53640;55.838;37.184;2024-02-21T11:19:24;14.45;;;9.38;;
65533;SDS011;53640;55.838;37.184;2024-02-21T11:21:53;17.63;;;10.02;;
65533;SDS011;53640;55.838;37.184;2024-02-21T11:29:48;15.98;;;9.68;;
65533;SDS011;53640;55.838;37.184;2024-02-21T11:35:03;16.38;;;9.38;;
65533;SDS011;53640;55.838;37.184;2024-02-21T11:37:36;15.98;;;8.93;;
65533;SDS011;53640;55.838;37.184;2024-02-21T11:40:06;17.83;;;8.75;;
65533;SDS011;53640;55.838;37.184;2024-02-21T11:42:36;14.10;;;8.88;;
65533;SDS011;53640;55.838;37.184;2024-02-21T11:45:03;12.30;;;8.02;;
65533;SDS011;53640;55.838;37.184;2024-02-21T11:47:33;13.90;;;8.82;;
65533;SDS011;53640;55.838;37.184;2024-02-21T11:50:05;13.73;;;8.25;;
65533;SDS011;53640;55.838;37.184;2024-02-21T11:52:36;16.33;;;9.38;;
65533;SDS011;53640;55.838;37.184;2024-02-21T11:55:03;14.90;;;8.50;;
65533;SDS011;53640;55.838;37.184;2024-02-21T11:57:33;20.10;;;8.90;;
65533;SDS011;53640;55.838;37.184;2024-02-21T12:00:15;15.40;;;8.77;;
65533;SDS011;53640;55.838;37.184;2024-02-21T12:02:46;16.77;;;9.23;;
65533;SDS011;53640;55.838;37.184;2024-02-21T12:05:14;16.55;;;9.63;;
65533;SDS011;53640;55.838;37.184;2024-02-21T12:07:42;14.90;;;9.40;;
65533;SDS011;53640;55.838;37.184;2024-02-21T12:10:10;17.55;;;9.57;;
65533;SDS011;53640;55.838;37.184;2024-02-21T12:12:38;15.75;;;9.38;;
65533;SDS011;53640;55.838;37.184;2024-02-21T12:15:06;15.52;;;9.50;;
65533;SDS011;53640;55.838;37.184;2024-02-21T12:17:35;15.32;;;9.60;;
65533;SDS011;53640;55.838;37.184;2024-02-21T12:20:03;13.75;;;8.63;;
65533;SDS011;53640;55.838;37.184;2024-02-21T12:22:38;14.90;;;9.07;;
65533;SDS011;53640;55.838;37.184;2024-02-21T12:25:29;14.27;;;8.85;;
65533;SDS011;53640;55.838;37.184;2024-02-21T12:27:56;20.55;;;9.07;;
65533;SDS011;53640;55.838;37.184;2024-02-21T12:30:23;16.77;;;9.43;;
65533;SDS011;53640;55.838;37.184;2024-02-21T12:32:49;17.08;;;9.68;;
65533;SDS011;53640;55.838;37.184;2024-02-21T12:35:16;15.82;;;9.55;;
65533;SDS011;53640;55.838;37.184;2024-02-21T12:37:43;17.58;;;9.93;;
65533;SDS011;53640;55.838;37.184;2024-02-21T12:40:12;15.18;;;8.65;;
65533;SDS011;53640;55.838;37.184;2024-02-21T12:42:42;15.05;;;9.52;;
65533;SDS011;53640;55.838;37.184;2024-02-21T12:45:09;15.75;;;9.18;;
65533;SDS011;53640;55.838;37.184;2024-02-21T12:47:35;16.05;;;9.18;;
65533;SDS011;53640;55.838;37.184;2024-02-21T12:50:03;15.68;;;9.63;;
65533;SDS011;53640;55.838;37.184;2024-02-21T12:52:30;12.75;;;8.85;;
65533;SDS011;53640;55.838;37.184;2024-02-21T12:54:59;18.30;;;10.35;;
65533;SDS011;53640;55.838;37.184;2024-02-21T12:57:28;14.07;;;8.27;;
65533;SDS011;53640;55.838;37.184;2024-02-21T12:59:54;12.50;;;8.48;;
65533;SDS011;53640;55.838;37.184;2024-02-21T13:02:24;16.88;;;9.35;;
65533;SDS011;53640;55.838;37.184;2024-02-21T13:04:50;15.65;;;8.82;;
65533;SDS011;53640;55.838;37.184;2024-02-21T13:07:17;16.25;;;9.60;;
65533;SDS011;53640;55.838;37.184;2024-02-21T13:09:43;15.25;;;8.93;;
65533;SDS011;53640;55.838;37.184;2024-02-21T13:12:14;15.63;;;9.93;;
65533;SDS011;53640;55.838;37.184;2024-02-21T13:14:42;17.20;;;9.65;;
65533;SDS011;53640;55.838;37.184;2024-02-21T13:17:10;13.63;;;8.90;;
65533;SDS011;53640;55.838;37.184;2024-02-21T13:19:36;19.88;;;9.25;;
65533;SDS011;53640;55.838;37.184;2024-02-21T13:22:03;15.75;;;9.88;;
65533;SDS011;53640;55.838;37.184;2024-02-21T13:24:30;16.23;;;9.65;;
65533;SDS011;53640;55.838;37.184;2024-02-21T13:26:57;15.85;;;9.70;;
65533;SDS011;53640;55.838;37.184;2024-02-21T13:29:26;18.35;;;10.23;;
65533;SDS011;53640;55.838;37.184;2024-02-21T13:31:53;16.52;;;10.73;;
65533;SDS011;53640;55.838;37.184;2024-02-21T13:34:20;15.00;;;9.40;;
65533;SDS011;53640;55.838;37.184;2024-02-21T13:36:46;14.82;;;9.65;;
65533;SDS011;53640;55.838;37.184;2024-02-21T13:39:12;18.10;;;10.40;;
65533;SDS011;53640;55.838;37.184;2024-02-21T13:41:42;15.98;;;10.25;;
65533;SDS011;53640;55.838;37.184;2024-02-21T13:44:09;15.98;;;10.63;;
65533;SDS011;53640;55.838;37.184;2024-02-21T13:46:36;20.38;;;10.43;;
65533;SDS011;53640;55.838;37.184;2024-02-21T13:49:03;24.55;;;11.50;;
65533;SDS011;53640;55.838;37.184;2024-02-21T13:51:35;18.35;;;10.88;;
65533;SDS011;53640;55.838;37.184;2024-02-21T13:54:02;17.58;;;10.65;;
65533;SDS011;53640;55.838;37.184;2024-02-21T13:56:30;17.27;;;11.35;;
65533;SDS011;53640;55.838;37.184;2024-02-21T13:58:57;18.23;;;10.55;;
65533;SDS011;53640;55.838;37.184;2024-02-21T14:01:26;17.05;;;10.30;;
65533;SDS011;53640;55.838;37.184;2024-02-21T14:03:54;15.05;;;9.43;;
65533;SDS011;53640;55.838;37.184;2024-02-21T14:06:21;18.77;;;10.98;;
65533;SDS011;53640;55.838;37.184;2024-02-21T14:08:54;18.63;;;11.25;;
65533;SDS011;53640;55.838;37.184;2024-02-21T14:11:21;18.13;;;11.48;;
65533;SDS011;53640;55.838;37.184;2024-02-21T14:13:49;19.45;;;11.90;;
65533;SDS011;53640;55.838;37.184;2024-02-21T14:16:15;19.02;;;11.27;;
65533;SDS011;53640;55.838;37.184;2024-02-21T14:18:41;18.63;;;10.98;;
65533;SDS011;53640;55.838;37.184;2024-02-21T14:21:08;16.58;;;10.50;;
65533;SDS011;53640;55.838;37.184;2024-02-21T14:23:42;19.75;;;11.10;;
65533;SDS011;53640;55.838;37.184;2024-02-21T14:26:09;19.67;;;11.23;;
65533;SDS011;53640;55.838;37.184;2024-02-21T14:28:35;19.77;;;10.48;;
65533;SDS011;53640;55.838;37.184;2024-02-21T14:31:02;17.27;;;10.90;;
65533;SDS011;53640;55.838;37.184;2024-02-21T14:33:31;19.77;;;11.35;;
65533;SDS011;53640;55.838;37.184;2024-02-21T14:35:58;19.70;;;10.88;;
65533;SDS011;53640;55.838;37.184;2024-02-21T14:38:25;17.27;;;10.63;;
65533;SDS011;53640;55.838;37.184;2024-02-21T14:40:56;16.08;;;10.13;;
65533;SDS011;53640;55.838;37.184;2024-02-21T14:43:23;16.30;;;10.30;;
65533;SDS011;53640;55.838;37.184;2024-02-21T14:45:49;19.58;;;10.77;;
65533;SDS011;53640;55.838;37.184;2024-02-21T14:48:17;22.08;;;12.48;;
65533;SDS011;53640;55.838;37.184;2024-02-21T14:50:44;19.83;;;11.80;;
65533;SDS011;53640;55.838;37.184;2024-02-21T14:53:10;20.00;;;12.05;;
65533;SDS011;53640;55.838;37.184;2024-02-21T14:55:37;19.05;;;11.77;;
65533;SDS011;53640;55.838;37.184;2024-02-21T14:58:07;19.00;;;11.23;;
65533;SDS011;53640;55.838;37.184;2024-02-21T15:00:34;24.05;;;12.73;;
65533;SDS011;53640;55.838;37.184;2024-02-21T15:03:00;18.33;;;11.70;;
65533;SDS011;53640;55.838;37.184;2024-02-21T15:05:28;17.95;;;10.65;;
65533;SDS011;53640;55.838;37.184;2024-02-21T15:07:58;21.38;;;12.05;;
65533;SDS011;53640;55.838;37.184;2024-02-21T15:10:24;17.77;;;11.32;;
65533;SDS011;53640;55.838;37.184;2024-02-21T15:12:52;17.90;;;11.35;;